Time;durP1;ratioP1;P1;durP2;ratioP2;P2;SDS_P1;SDS_P2;PMS_P1;PMS_P2;Temp;Humidity;BMP_temperature;BMP_pressure;BME280_temperature;BME280_humidity;BME280_pressure;Samples;Min_cycle;Max_cycle;Signal;HPM_P1;HPM_P2
2023/12/22 00:02:02;;;;;;;;;;;19.60;62.10;;;;;;7317836;19;9242;-63
2023/12/22 00:04:33;;;;;;;;;;;19.60;62.10;;;;;;7318275;19;9492;-62
2023/12/22 00:07:02;;;;;;;;;;;19.60;62.20;;;;;;7317503;19;9505;-62
2023/12/22 00:09:31;;;;;;;;;;;19.60;62.30;;;;;;7316305;19;9242;-62
2023/12/22 00:12:00;;;;;;;;;;;19.50;62.20;;;;;;7318245;19;9140;-62
2023/12/22 00:14:29;;;;;;;;;;;19.50;62.30;;;;;;7317421;19;9465;-63
2023/12/22 00:16:58;;;;;;;;;;;19.40;62.20;;;;;;7317369;19;9465;-62
2023/12/22 00:19:27;;;;;;;;;;;19.40;62.40;;;;;;7315758;19;9324;-61
2023/12/22 00:21:58;;;;;;;;;;;19.40;62.30;;;;;;7317714;19;9452;-63
2023/12/22 00:24:27;;;;;;;;;;;19.40;62.50;;;;;;7316665;19;9249;-62
2023/12/22 00:26:56;;;;;;;;;;;19.30;62.60;;;;;;7318539;19;9182;-62
2023/12/22 00:29:25;;;;;;;;;;;19.30;62.50;;;;;;7316116;19;10688;-62
2023/12/22 00:31:54;;;;;;;;;;;19.30;62.40;;;;;;7317444;19;9248;-62
2023/12/22 00:34:25;;;;;;;;;;;19.20;62.50;;;;;;7317545;19;9286;-62
2023/12/22 00:37:16;;;;;;;;;;;19.20;62.40;;;;;;7315675;19;9487;-63
2023/12/22 00:39:45;;;;;;;;;;;19.20;62.50;;;;;;7317156;19;9486;-63
2023/12/22 00:42:14;;;;;;;;;;;19.10;62.50;;;;;;7317047;19;10804;-62
2023/12/22 00:44:40;;;;;;;;;;;19.10;62.50;;;;;;7316215;19;9513;-63
2023/12/22 00:47:10;;;;;;;;;;;19.10;62.60;;;;;;7315414;19;9478;-62
2023/12/22 00:49:39;;;;;;;;;;;19.10;62.60;;;;;;7315604;19;9501;-62
2023/12/22 00:52:08;;;;;;;;;;;19.00;62.60;;;;;;7316539;19;9508;-62
2023/12/22 00:54:40;;;;;;;;;;;19.00;62.60;;;;;;7315081;19;9730;-63
2023/12/22 00:57:09;;;;;;;;;;;19.00;62.70;;;;;;7314193;19;10624;-63
2023/12/22 00:59:38;;;;;;;;;;;19.00;62.60;;;;;;7315382;19;9450;-63
2023/12/22 01:02:07;;;;;;;;;;;19.00;62.60;;;;;;7312193;19;9506;-63
2023/12/22 01:04:36;;;;;;;;;;;19.00;62.50;;;;;;7315641;19;9378;-63
2023/12/22 01:07:05;;;;;;;;;;;18.90;62.60;;;;;;7315079;19;9623;-64
2023/12/22 01:09:33;;;;;;;;;;;18.90;62.60;;;;;;7315511;19;9199;-63
2023/12/22 01:12:06;;;;;;;;;;;18.90;62.50;;;;;;7312903;19;9263;-62
2023/12/22 01:14:36;;;;;;;;;;;18.90;62.60;;;;;;7316804;19;9465;-62
2023/12/22 01:17:05;;;;;;;;;;;18.80;62.60;;;;;;7316142;19;9585;-62
2023/12/22 01:19:34;;;;;;;;;;;18.80;62.50;;;;;;7315509;19;10726;-63
2023/12/22 01:22:03;;;;;;;;;;;18.80;62.50;;;;;;7314567;19;9279;-63
2023/12/22 01:24:31;;;;;;;;;;;18.80;62.50;;;;;;7316495;19;9222;-62
2023/12/22 01:27:00;;;;;;;;;;;18.80;62.50;;;;;;7316255;19;9681;-63
2023/12/22 01:29:32;;;;;;;;;;;18.80;62.60;;;;;;7314979;19;9262;-63
2023/12/22 01:32:01;;;;;;;;;;;18.80;62.50;;;;;;7315217;19;9645;-62
2023/12/22 01:34:30;;;;;;;;;;;18.80;62.60;;;;;;7315971;19;9218;-63
2023/12/22 01:36:59;;;;;;;;;;;18.80;63.10;;;;;;7316106;19;9920;-63
2023/12/22 01:39:28;;;;;;;;;;;18.70;62.50;;;;;;7315633;19;9677;-63
2023/12/22 01:41:57;;;;;;;;;;;18.70;62.50;;;;;;7313128;19;9223;-63
2023/12/22 01:44:32;;;;;;;;;;;18.70;62.50;;;;;;7312738;19;9603;-63
2023/12/22 01:47:02;;;;;;;;;;;18.70;62.40;;;;;;7314523;19;9449;-63
2023/12/22 01:49:32;;;;;;;;;;;18.70;62.50;;;;;;7314012;19;9354;-63
2023/12/22 01:52:02;;;;;;;;;;;18.70;62.40;;;;;;7314765;19;10673;-63
2023/12/22 01:54:52;;;;;;;;;;;18.70;62.50;;;;;;7313065;19;10326;-62
2023/12/22 01:57:22;;;;;;;;;;;18.70;62.50;;;;;;7315568;19;9223;-63
2023/12/22 01:59:53;;;;;;;;;;;18.60;62.50;;;;;;7312184;19;9258;-62
2023/12/22 02:02:22;;;;;;;;;;;18.70;62.40;;;;;;7315180;19;9142;-63
2023/12/22 02:04:52;;;;;;;;;;;18.60;62.40;;;;;;7314501;19;10317;-63
2023/12/22 02:07:21;;;;;;;;;;;18.60;62.40;;;;;;7316110;19;9223;-63
2023/12/22 02:09:50;;;;;;;;;;;18.60;62.40;;;;;;7320782;19;9283;-63
2023/12/22 02:12:40;;;;;;;;;;;18.60;62.60;;;;;;7319841;19;9570;-63
2023/12/22 02:15:13;;;;;;;;;;;18.60;62.40;;;;;;7321950;19;9158;-62
2023/12/22 02:17:49;;;;;;;;;;;18.60;62.50;;;;;;7320597;19;9431;-62
2023/12/22 02:20:19;;;;;;;;;;;18.60;62.40;;;;;;7318506;19;10641;-62
2023/12/22 02:22:54;;;;;;;;;;;18.50;62.30;;;;;;7319835;19;9624;-62
2023/12/22 02:25:23;;;;;;;;;;;18.50;62.30;;;;;;7320409;19;9503;-63
2023/12/22 02:27:58;;;;;;;;;;;18.50;62.30;;;;;;7321873;19;9174;-63
2023/12/22 02:30:33;;;;;;;;;;;18.50;62.30;;;;;;7319786;19;9468;-63
2023/12/22 02:33:06;;;;;;;;;;;18.50;62.30;;;;;;7322277;19;8990;-62
2023/12/22 02:35:41;;;;;;;;;;;18.50;62.40;;;;;;7317839;19;9176;-62
2023/12/22 02:38:15;;;;;;;;;;;18.50;62.00;;;;;;7320784;19;9542;-62
2023/12/22 02:40:45;;;;;;;;;;;18.50;62.00;;;;;;7315255;19;9516;-62
2023/12/22 02:43:14;;;;;;;;;;;18.50;61.70;;;;;;7320393;19;9440;-62
2023/12/22 02:45:43;;;;;;;;;;;18.60;61.60;;;;;;7320180;19;9297;-62
2023/12/22 02:48:11;;;;;;;;;;;18.60;61.60;;;;;;7320411;19;10306;-62
2023/12/22 02:50:40;;;;;;;;;;;18.70;61.40;;;;;;7320498;19;10456;-62
2023/12/22 02:53:12;;;;;;;;;;;18.70;61.30;;;;;;7319714;19;9122;-62
2023/12/22 02:55:41;;;;;;;;;;;18.80;61.20;;;;;;7320575;19;9570;-62
2023/12/22 02:58:10;;;;;;;;;;;18.80;61.10;;;;;;7318167;19;9513;-62
2023/12/22 03:00:40;;;;;;;;;;;18.90;61.10;;;;;;7319918;19;9649;-63
2023/12/22 03:03:28;;;;;;;;;;;19.00;61.20;;;;;;7318922;19;9467;-63
2023/12/22 03:05:57;;;;;;;;;;;19.00;61.50;;;;;;7319438;19;9423;-62
2023/12/22 03:08:29;;;;;;;;;;;19.10;61.50;;;;;;7317716;19;10349;-63
2023/12/22 03:10:58;;;;;;;;;;;19.20;61.60;;;;;;7318834;19;10268;-63
2023/12/22 03:13:27;;;;;;;;;;;19.20;61.30;;;;;;7319289;19;9382;-62
2023/12/22 03:15:56;;;;;;;;;;;19.30;61.40;;;;;;7321257;19;9465;-62
2023/12/22 03:18:25;;;;;;;;;;;19.40;61.40;;;;;;7317027;19;9283;-63
2023/12/22 03:20:54;;;;;;;;;;;19.40;61.10;;;;;;7317797;19;9261;-63
2023/12/22 03:23:23;;;;;;;;;;;19.50;61.20;;;;;;7320676;19;9504;-63
2023/12/22 03:25:55;;;;;;;;;;;19.50;61.20;;;;;;7318933;19;9609;-63
2023/12/22 03:28:24;;;;;;;;;;;19.50;61.10;;;;;;7317718;19;9531;-63
2023/12/22 03:30:53;;;;;;;;;;;19.60;61.00;;;;;;7318628;19;9360;-62
2023/12/22 03:33:21;;;;;;;;;;;19.50;60.80;;;;;;7319976;19;9473;-63
2023/12/22 03:35:51;;;;;;;;;;;19.50;60.50;;;;;;7319621;19;9498;-63
2023/12/22 03:38:20;;;;;;;;;;;19.60;60.40;;;;;;7318714;19;9547;-63
2023/12/22 03:40:49;;;;;;;;;;;19.60;60.30;;;;;;7318794;19;9489;-63
2023/12/22 03:43:20;;;;;;;;;;;19.50;60.00;;;;;;7317889;19;9473;-63
2023/12/22 03:45:49;;;;;;;;;;;19.50;60.00;;;;;;7318381;19;9323;-62
2023/12/22 03:48:38;;;;;;;;;;;19.50;60.00;;;;;;7317246;19;9359;-63
2023/12/22 03:51:07;;;;;;;;;;;19.50;60.00;;;;;;7318378;19;9514;-63
2023/12/22 03:53:36;;;;;;;;;;;19.40;60.00;;;;;;7318925;19;9254;-63
2023/12/22 03:56:05;;;;;;;;;;;19.40;60.00;;;;;;7318960;19;9194;-63
2023/12/22 03:58:37;;;;;;;;;;;19.40;60.00;;;;;;7318462;19;9456;-63
2023/12/22 04:01:07;;;;;;;;;;;19.30;60.00;;;;;;7319517;19;9209;-62
2023/12/22 04:03:36;;;;;;;;;;;19.30;60.00;;;;;;7316244;19;9395;-63
2023/12/22 04:06:06;;;;;;;;;;;19.20;60.10;;;;;;7318820;19;9587;-63
2023/12/22 04:08:35;;;;;;;;;;;19.20;60.10;;;;;;7319923;19;10788;-63
2023/12/22 04:11:04;;;;;;;;;;;19.20;60.20;;;;;;7316439;19;9418;-62
2023/12/22 04:13:32;;;;;;;;;;;19.10;60.30;;;;;;7315110;19;10755;-62
2023/12/22 04:16:05;;;;;;;;;;;19.10;60.30;;;;;;7316007;19;10286;-63
2023/12/22 04:18:34;;;;;;;;;;;19.00;60.30;;;;;;7317884;19;10340;-62
2023/12/22 04:21:03;;;;;;;;;;;19.00;60.50;;;;;;7317043;19;9521;-63
2023/12/22 04:23:32;;;;;;;;;;;19.00;60.50;;;;;;7318485;19;10814;-63
2023/12/22 04:26:01;;;;;;;;;;;18.90;60.50;;;;;;7315472;19;9479;-63
2023/12/22 04:28:50;;;;;;;;;;;18.90;60.50;;;;;;7316655;19;9485;-62
2023/12/22 04:31:41;;;;;;;;;;;18.90;60.50;;;;;;7315805;19;9649;-63
2023/12/22 04:34:10;;;;;;;;;;;18.80;60.70;;;;;;7316143;19;9473;-63
2023/12/22 04:36:40;;;;;;;;;;;18.80;60.60;;;;;;7318093;19;10641;-63
2023/12/22 04:39:09;;;;;;;;;;;18.80;60.70;;;;;;7318379;19;9504;-63
2023/12/22 04:41:38;;;;;;;;;;;18.70;60.80;;;;;;7316241;19;9566;-63
2023/12/22 04:44:07;;;;;;;;;;;18.70;60.70;;;;;;7317913;19;9284;-63
2023/12/22 04:46:36;;;;;;;;;;;18.70;60.80;;;;;;7313949;19;9406;-63
2023/12/22 04:49:08;;;;;;;;;;;18.70;61.00;;;;;;7317815;19;9596;-63
2023/12/22 04:51:37;;;;;;;;;;;18.60;60.80;;;;;;7316197;19;9264;-63
2023/12/22 04:54:06;;;;;;;;;;;18.60;60.80;;;;;;7315939;19;9499;-63
2023/12/22 04:56:36;;;;;;;;;;;18.60;60.70;;;;;;7317398;19;9229;-63
2023/12/22 04:59:06;;;;;;;;;;;18.60;60.60;;;;;;7316827;19;9535;-63
2023/12/22 05:01:36;;;;;;;;;;;18.60;60.50;;;;;;7317903;19;9411;-63
2023/12/22 05:04:05;;;;;;;;;;;18.60;61.20;;;;;;7315762;19;11549;-63
2023/12/22 05:06:37;;;;;;;;;;;18.70;60.50;;;;;;7315985;19;9635;-63
2023/12/22 05:09:06;;;;;;;;;;;18.70;60.30;;;;;;7316057;19;9834;-63
2023/12/22 05:11:35;;;;;;;;;;;18.70;60.20;;;;;;7316887;19;9317;-63
2023/12/22 05:14:03;;;;;;;;;;;18.80;60.20;;;;;;7316716;19;9498;-62
2023/12/22 05:16:33;;;;;;;;;;;18.80;60.20;;;;;;7314285;19;9249;-63
2023/12/22 05:19:02;;;;;;;;;;;18.90;60.60;;;;;;7316278;19;9336;-64
2023/12/22 05:21:30;;;;;;;;;;;19.00;60.70;;;;;;7315258;19;9546;-63
2023/12/22 05:24:02;;;;;;;;;;;19.00;60.70;;;;;;7313300;19;9704;-63
2023/12/22 05:26:51;;;;;;;;;;;19.10;60.50;;;;;;7315461;19;9562;-63
2023/12/22 05:29:20;;;;;;;;;;;19.20;60.50;;;;;;7312649;19;9475;-63
2023/12/22 05:31:49;;;;;;;;;;;19.20;60.40;;;;;;7315781;19;9345;-63
2023/12/22 05:34:18;;;;;;;;;;;19.20;60.40;;;;;;7314948;19;9538;-63
2023/12/22 05:36:48;;;;;;;;;;;19.30;60.20;;;;;;7314228;19;9199;-63
2023/12/22 05:39:19;;;;;;;;;;;19.40;60.40;;;;;;7315079;19;9499;-63
2023/12/22 05:41:48;;;;;;;;;;;19.50;60.20;;;;;;7311072;19;9487;-63
2023/12/22 05:44:17;;;;;;;;;;;19.50;60.20;;;;;;7314227;19;9180;-63
2023/12/22 05:46:46;;;;;;;;;;;19.50;60.00;;;;;;7311813;19;9671;-63
2023/12/22 05:49:15;;;;;;;;;;;19.60;60.00;;;;;;7313858;19;9440;-63
2023/12/22 05:51:44;;;;;;;;;;;19.60;60.00;;;;;;7313099;19;9264;-63
2023/12/22 05:54:13;;;;;;;;;;;19.60;60.00;;;;;;7311653;19;9329;-63
2023/12/22 05:56:45;;;;;;;;;;;19.60;59.80;;;;;;7313088;19;9517;-63
2023/12/22 05:59:34;;;;;;;;;;;19.60;59.50;;;;;;7311157;19;9508;-63
2023/12/22 06:02:04;;;;;;;;;;;19.60;59.40;;;;;;7312088;19;9468;-63
2023/12/22 06:04:34;;;;;;;;;;;19.60;58.80;;;;;;7313444;19;9543;-63
2023/12/22 06:07:04;;;;;;;;;;;19.60;59.00;;;;;;7312686;19;9496;-63
2023/12/22 06:09:52;;;;;;;;;;;19.50;58.70;;;;;;7312577;19;9449;-63
2023/12/22 06:12:24;;;;;;;;;;;19.50;58.70;;;;;;7311615;19;9643;-63
2023/12/22 06:15:13;;;;;;;;;;;19.50;58.70;;;;;;7310849;19;9516;-63
2023/12/22 06:17:42;;;;;;;;;;;19.40;58.70;;;;;;7311632;19;9841;-63
2023/12/22 06:20:12;;;;;;;;;;;19.40;58.70;;;;;;7312639;19;9118;-63
2023/12/22 06:22:41;;;;;;;;;;;19.40;58.80;;;;;;7311058;19;10818;-63
2023/12/22 06:25:11;;;;;;;;;;;19.30;58.70;;;;;;7311833;19;9234;-63
2023/12/22 06:27:42;;;;;;;;;;;19.30;58.80;;;;;;7309878;19;9269;-63
2023/12/22 06:30:12;;;;;;;;;;;19.20;58.90;;;;;;7312697;19;9400;-63
2023/12/22 06:32:41;;;;;;;;;;;19.20;58.90;;;;;;7309619;19;9432;-63
2023/12/22 06:35:12;;;;;;;;;;;19.10;58.70;;;;;;7312914;19;9598;-63
2023/12/22 06:37:42;;;;;;;;;;;19.10;58.90;;;;;;7311169;19;10798;-63
2023/12/22 06:40:12;;;;;;;;;;;19.10;59.00;;;;;;7312517;19;9443;-62
2023/12/22 06:42:43;;;;;;;;;;;19.00;59.00;;;;;;7313118;19;10441;-63
2023/12/22 06:45:13;;;;;;;;;;;19.00;59.00;;;;;;7308262;19;10640;-63
2023/12/22 06:47:42;;;;;;;;;;;19.00;59.20;;;;;;7312880;19;9689;-63
2023/12/22 06:50:12;;;;;;;;;;;19.00;59.30;;;;;;7312597;19;10678;-63
2023/12/22 06:52:40;;;;;;;;;;;18.90;59.30;;;;;;7311747;19;11097;-62
2023/12/22 06:55:10;;;;;;;;;;;18.90;59.30;;;;;;7316046;19;10695;-62
2023/12/22 06:57:39;;;;;;;;;;;18.80;59.30;;;;;;7319357;19;9275;-63
2023/12/22 07:00:12;;;;;;;;;;;18.80;59.40;;;;;;7319855;19;9262;-63
2023/12/22 07:02:41;;;;;;;;;;;18.80;59.60;;;;;;7319299;19;10647;-62
2023/12/22 07:05:32;;;;;;;;;;;18.80;59.60;;;;;;7319603;19;9271;-63
2023/12/22 07:08:21;;;;;;;;;;;18.70;59.60;;;;;;7317687;19;9375;-62
2023/12/22 07:10:50;;;;;;;;;;;18.70;59.60;;;;;;7315265;19;9475;-63
2023/12/22 07:13:19;;;;;;;;;;;18.70;59.50;;;;;;7319106;19;9653;-62
2023/12/22 07:15:50;;;;;;;;;;;18.70;59.50;;;;;;7318226;19;9455;-62
2023/12/22 07:18:19;;;;;;;;;;;18.70;59.40;;;;;;7317622;19;9454;-62
2023/12/22 07:20:48;;;;;;;;;;;18.70;59.30;;;;;;7318603;19;9292;-62
2023/12/22 07:23:17;;;;;;;;;;;18.70;59.30;;;;;;7319824;19;9450;-62
2023/12/22 07:25:43;;;;;;;;;;;18.80;59.30;;;;;;7317170;19;9988;-62
2023/12/22 07:28:12;;;;;;;;;;;18.80;59.30;;;;;;7317916;19;9624;-62
2023/12/22 07:30:41;;;;;;;;;;;18.90;59.20;;;;;;7317861;19;9538;-63
2023/12/22 07:33:13;;;;;;;;;;;19.00;59.80;;;;;;7316983;19;11537;-63
2023/12/22 07:35:42;;;;;;;;;;;19.00;59.70;;;;;;7315440;19;9272;-63
2023/12/22 07:38:11;;;;;;;;;;;19.10;59.70;;;;;;7315512;19;9348;-63
2023/12/22 07:40:40;;;;;;;;;;;19.10;59.50;;;;;;7315996;19;9463;-63
2023/12/22 07:43:10;;;;;;;;;;;19.10;59.70;;;;;;7317763;19;9437;-63
2023/12/22 07:45:40;;;;;;;;;;;19.20;59.60;;;;;;7319254;19;9188;-63
2023/12/22 07:48:09;;;;;;;;;;;19.30;59.60;;;;;;7319115;19;9413;-63
2023/12/22 07:50:41;;;;;;;;;;;19.30;59.70;;;;;;7317200;19;9454;-63
2023/12/22 07:53:11;;;;;;;;;;;19.40;59.50;;;;;;7319156;19;9164;-63
2023/12/22 07:55:40;;;;;;;;;;;19.40;59.50;;;;;;7315868;19;9556;-63
2023/12/22 07:58:09;;;;;;;;;;;19.40;59.40;;;;;;7320745;19;9461;-63
2023/12/22 08:00:39;;;;;;;;;;;19.60;59.40;;;;;;7318481;19;9562;-63
2023/12/22 08:03:07;;;;;;;;;;;19.60;59.50;;;;;;7316880;19;9234;-63
2023/12/22 08:05:37;;;;;;;;;;;19.60;59.40;;;;;;7312854;19;9485;-63
2023/12/22 08:08:09;;;;;;;;;;;19.60;59.30;;;;;;7318083;19;9200;-63
2023/12/22 08:10:38;;;;;;;;;;;19.60;59.30;;;;;;7317774;19;9504;-63
2023/12/22 08:13:07;;;;;;;;;;;19.60;59.30;;;;;;7316734;19;9394;-63
2023/12/22 08:15:35;;;;;;;;;;;19.60;59.20;;;;;;7317782;19;8992;-63
2023/12/22 08:18:05;;;;;;;;;;;19.60;59.10;;;;;;7315983;19;9497;-63
2023/12/22 08:20:33;;;;;;;;;;;19.60;59.00;;;;;;7317336;19;9569;-63
2023/12/22 08:23:03;;;;;;;;;;;19.60;59.00;;;;;;7316642;19;9469;-63
2023/12/22 08:25:34;;;;;;;;;;;19.60;58.80;;;;;;7316127;19;9422;-63
2023/12/22 08:28:03;;;;;;;;;;;19.50;58.60;;;;;;7316518;19;11431;-63
2023/12/22 08:30:33;;;;;;;;;;;19.50;58.60;;;;;;7316584;19;10466;-63
2023/12/22 08:33:02;;;;;;;;;;;19.50;58.70;;;;;;7317036;19;9465;-63
2023/12/22 08:35:31;;;;;;;;;;;19.40;58.70;;;;;;7315694;19;10608;-63
2023/12/22 08:38:00;;;;;;;;;;;19.40;58.80;;;;;;7317913;19;9214;-62
2023/12/22 08:40:29;;;;;;;;;;;19.40;58.70;;;;;;7316613;19;9608;-61
2023/12/22 08:43:01;;;;;;;;;;;19.40;59.00;;;;;;7316724;19;9467;-62
2023/12/22 08:45:31;;;;;;;;;;;19.30;59.00;;;;;;7315165;19;9471;-62
2023/12/22 08:48:20;;;;;;;;;;;19.30;59.00;;;;;;7311979;19;9542;-63
2023/12/22 08:50:49;;;;;;;;;;;19.20;59.10;;;;;;7314138;19;10344;-62
2023/12/22 08:53:18;;;;;;;;;;;19.20;59.20;;;;;;7314832;19;9405;-62
2023/12/22 08:55:47;;;;;;;;;;;19.20;59.20;;;;;;7315635;19;9393;-62
2023/12/22 08:58:19;;;;;;;;;;;19.20;59.40;;;;;;7316518;19;10520;-62
2023/12/22 09:00:48;;;;;;;;;;;19.20;59.40;;;;;;7316047;19;9242;-61
2023/12/22 09:03:17;;;;;;;;;;;19.20;59.40;;;;;;7315676;19;9638;-63
2023/12/22 09:05:46;;;;;;;;;;;19.20;59.80;;;;;;7312217;19;9754;-63
2023/12/22 09:08:16;;;;;;;;;;;19.30;59.80;;;;;;7316330;19;9592;-61
2023/12/22 09:10:45;;;;;;;;;;;19.20;59.80;;;;;;7313544;19;9802;-61
2023/12/22 09:13:14;;;;;;;;;;;19.30;60.10;;;;;;7312734;19;9525;-61
2023/12/22 09:15:46;;;;;;;;;;;19.30;60.00;;;;;;7314964;19;9286;-62
2023/12/22 09:18:16;;;;;;;;;;;19.40;60.10;;;;;;7313283;19;9511;-68
2023/12/22 09:21:06;;;;;;;;;;;19.40;60.20;;;;;;7314066;19;9563;-63
2023/12/22 09:23:35;;;;;;;;;;;19.50;60.00;;;;;;7316095;19;9466;-64
2023/12/22 09:26:24;;;;;;;;;;;19.60;60.20;;;;;;7315761;19;9370;-65
2023/12/22 09:28:54;;;;;;;;;;;19.60;60.20;;;;;;7309339;19;11360;-64
2023/12/22 09:31:25;;;;;;;;;;;19.60;60.10;;;;;;7316048;19;9516;-64
2023/12/22 09:33:54;;;;;;;;;;;19.60;60.20;;;;;;7313624;19;9576;-64
2023/12/22 09:36:23;;;;;;;;;;;19.70;60.10;;;;;;7311054;19;9470;-63
2023/12/22 09:38:52;;;;;;;;;;;19.70;60.10;;;;;;7315595;19;9360;-63
2023/12/22 09:41:22;;;;;;;;;;;19.80;60.20;;;;;;7311429;19;9365;-64
2023/12/22 09:43:53;;;;;;;;;;;19.80;60.10;;;;;;7314788;19;9735;-63
2023/12/22 09:46:28;;;;;;;;;;;19.90;60.10;;;;;;7311892;19;9458;-64
2023/12/22 09:48:57;;;;;;;;;;;19.90;60.10;;;;;;7315935;19;9257;-64
2023/12/22 09:51:26;;;;;;;;;;;20.00;60.20;;;;;;7310451;19;10374;-63
2023/12/22 09:53:56;;;;;;;;;;;20.00;60.30;;;;;;7313246;19;9288;-63
2023/12/22 09:56:46;;;;;;;;;;;20.00;60.40;;;;;;7313820;19;9332;-63
2023/12/22 09:59:20;;;;;;;;;;;20.00;60.40;;;;;;7313449;19;9675;-63
2023/12/22 10:01:55;;;;;;;;;;;20.00;60.30;;;;;;7311593;19;9312;-63
2023/12/22 10:04:24;;;;;;;;;;;20.00;60.30;;;;;;7313733;19;9225;-63
2023/12/22 10:06:56;;;;;;;;;;;20.00;60.40;;;;;;7312817;19;9426;-63
2023/12/22 10:09:25;;;;;;;;;;;20.00;60.40;;;;;;7313317;19;10838;-63
2023/12/22 10:11:55;;;;;;;;;;;20.00;60.50;;;;;;7309927;19;10493;-63
2023/12/22 10:14:26;;;;;;;;;;;19.90;60.40;;;;;;7312943;19;9393;-63
2023/12/22 10:16:58;;;;;;;;;;;19.90;60.40;;;;;;7310877;19;9446;-63
2023/12/22 10:19:26;;;;;;;;;;;19.90;60.40;;;;;;7313216;19;9599;-63
2023/12/22 10:21:55;;;;;;;;;;;19.90;60.50;;;;;;7312988;19;9473;-63
2023/12/22 10:24:42;;;;;;;;;;;19.90;60.40;;;;;;7311863;19;9441;-63
2023/12/22 10:27:11;;;;;;;;;;;19.80;60.40;;;;;;7312137;19;9592;-62
2023/12/22 10:29:41;;;;;;;;;;;19.80;60.50;;;;;;7317084;19;9514;-63
2023/12/22 10:32:13;;;;;;;;;;;19.80;60.50;;;;;;7319702;19;9487;-63
2023/12/22 10:34:42;;;;;;;;;;;19.70;60.60;;;;;;7320464;19;9174;-63
2023/12/22 10:37:13;;;;;;;;;;;19.70;60.60;;;;;;7316213;19;9905;-63
2023/12/22 10:39:43;;;;;;;;;;;19.70;60.70;;;;;;7320541;19;9466;-62
2023/12/22 10:42:13;;;;;;;;;;;19.60;60.80;;;;;;7318485;19;9430;-63
2023/12/22 10:44:44;;;;;;;;;;;19.60;60.80;;;;;;7318271;19;9507;-68
2023/12/22 10:47:15;;;;;;;;;;;19.60;61.10;;;;;;7319093;19;9596;-62
2023/12/22 10:49:45;;;;;;;;;;;19.50;61.40;;;;;;7315251;19;9613;-65
2023/12/22 10:52:20;;;;;;;;;;;19.50;61.60;;;;;;7318460;19;9356;-62
2023/12/22 10:54:51;;;;;;;;;;;19.40;62.00;;;;;;7316178;19;9395;-63
2023/12/22 10:57:22;;;;;;;;;;;19.40;62.60;;;;;;7317490;19;9485;-63
2023/12/22 10:59:50;;;;;;;;;;;19.40;63.00;;;;;;7320625;19;9195;-62
2023/12/22 11:02:22;;;;;;;;;;;19.40;63.40;;;;;;7317947;19;9439;-63
2023/12/22 11:05:04;;;;;;;;;;;19.30;63.70;;;;;;7318217;19;9401;-62
2023/12/22 11:07:37;;;;;;;;;;;19.20;64.10;;;;;;7320964;19;9438;-62
2023/12/22 11:10:08;;;;;;;;;;;19.20;64.30;;;;;;7314545;19;10620;-63
2023/12/22 11:12:39;;;;;;;;;;;19.20;64.50;;;;;;7317967;19;9738;-62
2023/12/22 11:15:30;;;;;;;;;;;19.20;64.90;;;;;;7318189;19;10213;-62
2023/12/22 11:18:23;;;;;;;;;;;19.10;64.90;;;;;;7316379;19;9539;-62
2023/12/22 11:20:53;;;;;;;;;;;19.10;64.80;;;;;;7317529;19;9619;-62
2023/12/22 11:23:24;;;;;;;;;;;19.10;65.40;;;;;;7317257;19;10606;-62
2023/12/22 11:25:56;;;;;;;;;;;19.10;65.40;;;;;;7318613;19;9469;-62
2023/12/22 11:28:25;;;;;;;;;;;19.10;65.90;;;;;;7317409;19;9168;-62
2023/12/22 11:30:56;;;;;;;;;;;19.10;66.00;;;;;;7317577;19;9526;-63
2023/12/22 11:33:50;;;;;;;;;;;19.10;65.70;;;;;;7313157;19;9265;-62
2023/12/22 11:36:20;;;;;;;;;;;19.00;65.90;;;;;;7318358;19;9874;-62
2023/12/22 11:38:50;;;;;;;;;;;19.00;66.30;;;;;;7317786;19;9473;-62
2023/12/22 11:41:24;;;;;;;;;;;19.00;66.60;;;;;;7313789;19;9663;-62
2023/12/22 11:43:55;;;;;;;;;;;19.00;66.60;;;;;;7315289;19;9415;-62
2023/12/22 11:46:25;;;;;;;;;;;19.00;66.30;;;;;;7317836;19;9503;-62
2023/12/22 11:48:58;;;;;;;;;;;19.00;66.40;;;;;;7314681;19;9626;-62
2023/12/22 11:51:34;;;;;;;;;;;19.00;67.00;;;;;;7316171;19;9234;-62
2023/12/22 11:54:03;;;;;;;;;;;18.90;66.50;;;;;;7316849;19;9328;-62
2023/12/22 11:56:33;;;;;;;;;;;18.90;66.90;;;;;;7316695;19;9626;-62
2023/12/22 11:59:24;;;;;;;;;;;18.90;66.60;;;;;;7312166;19;9543;-61
2023/12/22 12:01:58;;;;;;;;;;;18.90;66.90;;;;;;7317193;19;9641;-62
2023/12/22 12:04:30;;;;;;;;;;;18.90;66.80;;;;;;7318222;19;9468;-62
2023/12/22 12:07:02;;;;;;;;;;;18.90;66.80;;;;;;7315249;19;10632;-61
2023/12/22 12:09:49;;;;;;;;;;;18.90;67.00;;;;;;7316079;19;9316;-61
2023/12/22 12:12:18;;;;;;;;;;;18.90;67.30;;;;;;7313704;19;10705;-61
2023/12/22 12:14:56;;;;;;;;;;;18.80;67.10;;;;;;7317001;19;9451;-62
2023/12/22 12:17:25;;;;;;;;;;;18.80;67.10;;;;;;7318519;19;9427;-61
2023/12/22 12:19:57;;;;;;;;;;;18.80;67.30;;;;;;7317342;19;9702;-62
2023/12/22 12:22:26;;;;;;;;;;;18.80;67.20;;;;;;7316557;19;9461;-61
2023/12/22 12:24:56;;;;;;;;;;;18.80;67.20;;;;;;7317001;19;9442;-62
2023/12/22 12:27:25;;;;;;;;;;;18.80;67.60;;;;;;7316172;19;9513;-62
2023/12/22 12:29:54;;;;;;;;;;;18.80;67.50;;;;;;7316387;19;9486;-61
2023/12/22 12:32:47;;;;;;;;;;;18.80;67.40;;;;;;7313070;19;9211;-62
2023/12/22 12:35:23;;;;;;;;;;;18.80;67.40;;;;;;7315505;19;9475;-62
2023/12/22 12:37:53;;;;;;;;;;;18.80;67.80;;;;;;7317161;19;9270;-61
2023/12/22 12:40:29;;;;;;;;;;;18.80;67.60;;;;;;7316364;19;9603;-61
2023/12/22 12:42:59;;;;;;;;;;;18.80;67.80;;;;;;7314674;19;9509;-61
2023/12/22 12:45:29;;;;;;;;;;;18.80;67.80;;;;;;7316992;19;9236;-61
2023/12/22 12:47:59;;;;;;;;;;;18.80;67.80;;;;;;7315950;19;9211;-62
2023/12/22 12:50:33;;;;;;;;;;;18.80;67.80;;;;;;7313164;19;9469;-62
2023/12/22 12:53:02;;;;;;;;;;;18.80;67.60;;;;;;7316852;19;9575;-62
2023/12/22 12:55:31;;;;;;;;;;;18.90;67.20;;;;;;7312884;19;9658;-61
2023/12/22 12:58:00;;;;;;;;;;;19.00;67.00;;;;;;7311323;19;9752;-61
2023/12/22 13:00:32;;;;;;;;;;;19.00;67.00;;;;;;7312459;19;9441;-62
2023/12/22 13:03:05;;;;;;;;;;;19.10;66.90;;;;;;7314070;19;9536;-62
2023/12/22 13:05:37;;;;;;;;;;;19.20;66.80;;;;;;7309970;19;9539;-62
2023/12/22 13:08:10;;;;;;;;;;;19.20;66.80;;;;;;7314939;19;9492;-62
2023/12/22 13:10:40;;;;;;;;;;;19.30;66.70;;;;;;7315197;19;10346;-62
2023/12/22 13:13:10;;;;;;;;;;;19.40;66.60;;;;;;7314107;19;9344;-62
2023/12/22 13:15:43;;;;;;;;;;;19.40;66.50;;;;;;7312555;19;9453;-62
2023/12/22 13:18:12;;;;;;;;;;;19.40;66.50;;;;;;7309333;19;9516;-62
2023/12/22 13:20:44;;;;;;;;;;;19.50;66.50;;;;;;7309631;19;9336;-63
2023/12/22 13:23:33;;;;;;;;;;;19.50;66.30;;;;;;7310570;19;9485;-60
2023/12/22 13:26:02;;;;;;;;;;;19.60;66.40;;;;;;7314462;19;9257;-61
2023/12/22 13:28:32;;;;;;;;;;;19.60;66.30;;;;;;7312092;19;9398;-61
2023/12/22 13:31:01;;;;;;;;;;;19.60;66.50;;;;;;7314772;19;9465;-62
2023/12/22 13:33:36;;;;;;;;;;;19.60;66.40;;;;;;7310798;19;9254;-62
2023/12/22 13:36:08;;;;;;;;;;;19.60;66.40;;;;;;7314978;19;9718;-62
2023/12/22 13:38:38;;;;;;;;;;;19.60;66.50;;;;;;7308940;19;9457;-62
2023/12/22 13:41:10;;;;;;;;;;;19.50;66.60;;;;;;7312336;19;9485;-62
2023/12/22 13:43:39;;;;;;;;;;;19.50;66.80;;;;;;7312785;19;9275;-62
2023/12/22 13:46:09;;;;;;;;;;;19.50;66.80;;;;;;7316098;19;9173;-62
2023/12/22 13:48:38;;;;;;;;;;;19.50;67.00;;;;;;7314060;19;9718;-62
2023/12/22 13:51:10;;;;;;;;;;;19.40;67.00;;;;;;7315889;19;9957;-62
2023/12/22 13:53:50;;;;;;;;;;;19.40;67.10;;;;;;7313613;19;10462;-62
2023/12/22 13:56:19;;;;;;;;;;;19.40;67.10;;;;;;7312907;19;10326;-62
2023/12/22 13:58:49;;;;;;;;;;;19.30;67.10;;;;;;7312682;19;9493;-62
2023/12/22 14:01:19;;;;;;;;;;;19.30;67.10;;;;;;7315466;19;9272;-63
2023/12/22 14:03:48;;;;;;;;;;;19.30;67.20;;;;;;7315175;19;9459;-65
2023/12/22 14:06:19;;;;;;;;;;;19.20;67.20;;;;;;7322369;19;9430;-61
2023/12/22 14:09:08;;;;;;;;;;;19.20;67.20;;;;;;7314164;19;9894;-60
2023/12/22 14:11:38;;;;;;;;;;;19.20;67.20;;;;;;7320775;19;9356;-60
2023/12/22 14:14:27;;;;;;;;;;;19.20;67.20;;;;;;7320446;19;9178;-61
2023/12/22 14:16:56;;;;;;;;;;;19.10;67.20;;;;;;7321823;19;10113;-77
2023/12/22 14:19:45;;;;;;;;;;;19.10;67.30;;;;;;7317572;19;9372;-67
2023/12/22 14:22:16;;;;;;;;;;;19.10;67.30;;;;;;7320974;19;9642;-67
2023/12/22 14:25:06;;;;;;;;;;;19.10;67.30;;;;;;7319567;19;9208;-65
2023/12/22 14:27:36;;;;;;;;;;;19.00;67.40;;;;;;7322131;19;9450;-73
2023/12/22 14:30:05;;;;;;;;;;;19.00;67.50;;;;;;7319698;19;9463;-69
2023/12/22 14:32:34;;;;;;;;;;;19.00;67.50;;;;;;7321393;19;11182;-66
2023/12/22 14:35:03;;;;;;;;;;;18.90;67.50;;;;;;7321328;19;9606;-77
2023/12/22 14:37:35;;;;;;;;;;;18.90;67.50;;;;;;7319995;19;9445;-67
2023/12/22 14:40:24;;;;;;;;;;;18.90;67.50;;;;;;7314182;19;10257;-68
2023/12/22 14:42:54;;;;;;;;;;;18.90;68.00;;;;;;7320504;19;9252;-67
2023/12/22 14:45:23;;;;;;;;;;;18.80;67.40;;;;;;7312012;19;9622;-67
2023/12/22 14:47:54;;;;;;;;;;;18.80;67.40;;;;;;7321518;19;9239;-66
2023/12/22 14:50:23;;;;;;;;;;;18.80;67.30;;;;;;7323281;19;9165;-67
2023/12/22 14:52:54;;;;;;;;;;;18.80;67.20;;;;;;7322421;19;9562;-67
2023/12/22 14:55:23;;;;;;;;;;;18.80;67.20;;;;;;7322167;19;9493;-67